createdAt,value
2023-05-03T00:00:15.737Z,100555.55
2023-05-03T00:02:44.088Z,100556.46
2023-05-03T00:05:14.629Z,100552.55
2023-05-03T00:07:42.764Z,100553.24
2023-05-03T00:10:13.117Z,100556.26
2023-05-03T00:12:40.073Z,100558.20
2023-05-03T00:15:08.148Z,100553.55
2023-05-03T00:17:38.593Z,100554.28
2023-05-03T00:20:06.920Z,100554.80
2023-05-03T00:22:33.732Z,100551.83
2023-05-03T00:25:00.756Z,100550.27
2023-05-03T00:27:28.393Z,100544.41
2023-05-03T00:29:55.322Z,100544.98
2023-05-03T00:32:22.273Z,100542.71
2023-05-03T00:34:58.418Z,100541.50
2023-05-03T00:37:25.807Z,100536.91
2023-05-03T00:39:53.303Z,100536.06
2023-05-03T00:42:20.197Z,100541.11
2023-05-03T00:44:47.155Z,100536.90
2023-05-03T00:47:15.407Z,100536.05
2023-05-03T00:49:42.369Z,100535.42
2023-05-03T00:52:09.612Z,100534.21
2023-05-03T00:54:37.387Z,100533.56
2023-05-03T00:57:04.337Z,100535.42
2023-05-03T00:59:32.551Z,100531.39
2023-05-03T01:01:59.796Z,100530.20
2023-05-03T01:04:27.322Z,100531.48
2023-05-03T01:07:06.156Z,100528.54
2023-05-03T01:09:42.921Z,100520.14
2023-05-03T01:12:35.372Z,100522.70
2023-05-03T01:15:31.639Z,100520.84
2023-05-03T01:18:02.603Z,100522.42
2023-05-03T01:20:30.406Z,100521.10
2023-05-03T01:22:57.558Z,100520.30
2023-05-03T01:25:24.710Z,100517.72
2023-05-03T01:27:51.710Z,100516.90
2023-05-03T01:30:18.531Z,100515.20
2023-05-03T01:33:10.435Z,100514.17
2023-05-03T01:35:50.214Z,100512.80
2023-05-03T01:38:17.036Z,100511.63
2023-05-03T01:40:49.149Z,100506.48
2023-05-03T01:43:16.564Z,100503.16
2023-05-03T01:45:43.437Z,100500.19
2023-05-03T01:48:12.575Z,100498.66
2023-05-03T01:50:39.546Z,100492.63
2023-05-03T01:53:06.311Z,100495.67
2023-05-03T01:55:33.746Z,100496.09
2023-05-03T01:58:00.688Z,100490.45
2023-05-03T02:00:27.633Z,100495.88
2023-05-03T02:02:54.447Z,100493.99
2023-05-03T02:05:21.244Z,100500.79
2023-05-03T02:07:48.034Z,100501.88
2023-05-03T02:10:15.837Z,100503.16
2023-05-03T02:12:43.496Z,100506.77
2023-05-03T02:15:11.581Z,100510.01
2023-05-03T02:17:39.763Z,100506.52
2023-05-03T02:20:10.086Z,100510.65
2023-05-03T02:22:36.822Z,100514.78
2023-05-03T02:25:04.457Z,100518.88
2023-05-03T02:27:31.321Z,100519.05
2023-05-03T02:29:58.164Z,100517.80
2023-05-03T02:32:25.736Z,100519.05
2023-05-03T02:34:53.360Z,100515.48
2023-05-03T02:37:20.569Z,100514.59
2023-05-03T02:39:47.611Z,100517.63
2023-05-03T02:42:14.752Z,100522.23
2023-05-03T02:44:41.672Z,100522.83
2023-05-03T02:47:09.153Z,100523.27
2023-05-03T02:49:36.301Z,100525.45
2023-05-03T02:52:03.099Z,100518.21
2023-05-03T02:54:31.006Z,100514.20
2023-05-03T02:56:58.981Z,100514.04
2023-05-03T02:59:25.734Z,100506.83
2023-05-03T03:01:53.614Z,100508.64
2023-05-03T03:04:20.870Z,100511.10
2023-05-03T03:06:47.987Z,100511.35
2023-05-03T03:09:16.016Z,100505.73
2023-05-03T03:11:43.233Z,100503.93
2023-05-03T03:14:10.037Z,100501.41
2023-05-03T03:16:37.305Z,100506.36
2023-05-03T03:19:04.179Z,100506.27
2023-05-03T03:21:32.207Z,100506.25
2023-05-03T03:23:58.985Z,100513.38
2023-05-03T03:26:26.153Z,100515.35
2023-05-03T03:28:53.107Z,100515.98
2023-05-03T03:31:22.484Z,100517.91
2023-05-03T03:33:50.044Z,100513.70
2023-05-03T03:36:17.125Z,100514.30
2023-05-03T03:38:44.447Z,100511.94
2023-05-03T03:41:11.502Z,100508.21
2023-05-03T03:43:38.566Z,100503.66
2023-05-03T03:46:06.599Z,100504.72
2023-05-03T03:48:33.701Z,100499.29
2023-05-03T03:51:00.625Z,100503.18
2023-05-03T03:53:33.189Z,100506.04
2023-05-03T03:56:01.603Z,100509.77
2023-05-03T03:58:29.369Z,100506.69
2023-05-03T04:00:56.203Z,100510.73
2023-05-03T04:03:23.634Z,100511.85
2023-05-03T04:05:51.629Z,100508.64
2023-05-03T04:08:19.484Z,100515.15
2023-05-03T04:10:46.523Z,100514.07
2023-05-03T04:13:14.159Z,100519.30
2023-05-03T04:15:41.250Z,100522.34
2023-05-03T04:18:08.425Z,100520.52
2023-05-03T04:20:37.283Z,100518.84
2023-05-03T04:23:04.845Z,100518.59
2023-05-03T04:25:33.021Z,100519.75
2023-05-03T04:28:05.119Z,100513.83
2023-05-03T04:30:35.171Z,100517.47
2023-05-03T04:33:04.161Z,100512.91
2023-05-03T04:35:33.823Z,100508.70
2023-05-03T04:38:03.729Z,100508.25
2023-05-03T04:40:31.300Z,100509.34
2023-05-03T04:43:04.997Z,100506.14
2023-05-03T04:45:33.690Z,100506.54
2023-05-03T04:48:01.418Z,100509.08
2023-05-03T04:50:28.700Z,100507.47
2023-05-03T04:52:55.578Z,100504.06
2023-05-03T04:55:22.957Z,100511.42
2023-05-03T04:59:05.714Z,100515.58
2023-05-03T05:01:33.125Z,100509.53
2023-05-03T05:04:01.744Z,100512.16
2023-05-03T05:06:34.533Z,100512.27
2023-05-03T05:09:02.308Z,100509.17
2023-05-03T05:11:29.473Z,100508.71
2023-05-03T05:13:57.650Z,100507.13
2023-05-03T05:16:24.729Z,100509.55
2023-05-03T05:18:52.883Z,100509.95
2023-05-03T05:21:21.559Z,100505.05
2023-05-03T05:23:48.537Z,100499.15
2023-05-03T05:26:15.462Z,100493.22
2023-05-03T05:28:43.220Z,100491.08
2023-05-03T05:31:10.591Z,100492.44
2023-05-03T05:33:37.614Z,100492.16
2023-05-03T05:36:06.311Z,100492.85
2023-05-03T05:38:34.002Z,100485.14
2023-05-03T05:41:01.438Z,100481.02
2023-05-03T05:43:28.896Z,100477.71
2023-05-03T05:45:56.093Z,100472.34
2023-05-03T05:48:23.305Z,100471.79
2023-05-03T05:50:51.013Z,100468.59
2023-05-03T05:53:17.916Z,100461.42
2023-05-03T05:55:50.565Z,100459.26
2023-05-03T05:58:17.955Z,100458.01
2023-05-03T06:00:49.267Z,100455.69
2023-05-03T06:03:17.053Z,100453.83
2023-05-03T06:05:45.218Z,100456.69
2023-05-03T06:08:13.011Z,100457.64
2023-05-03T06:10:40.259Z,100450.96
2023-05-03T06:13:07.437Z,100451.30
2023-05-03T06:15:35.075Z,100449.47
2023-05-03T06:18:02.216Z,100441.73
2023-05-03T06:20:29.428Z,100439.91
2023-05-03T06:22:56.965Z,100441.27
2023-05-03T06:25:24.307Z,100436.67
2023-05-03T06:27:51.380Z,100434.73
2023-05-03T06:30:21.344Z,100430.81
2023-05-03T06:32:49.500Z,100427.87
2023-05-03T06:35:19.733Z,100433.36
2023-05-03T06:37:47.135Z,100420.41
2023-05-03T06:40:14.258Z,100425.19
2023-05-03T06:42:41.229Z,100430.12
2023-05-03T06:45:14.616Z,100424.38
2023-05-03T06:47:43.143Z,100429.23
2023-05-03T06:50:11.010Z,100427.66
2023-05-03T06:52:38.216Z,100426.90
2023-05-03T06:55:06.394Z,100423.59
2023-05-03T06:57:33.347Z,100421.41
2023-05-03T07:00:00.441Z,100417.12
2023-05-03T07:02:27.596Z,100423.46
2023-05-03T07:04:54.800Z,100429.27
2023-05-03T07:07:21.918Z,100427.80
2023-05-03T07:09:49.746Z,100423.88
2023-05-03T07:12:16.693Z,100424.59
2023-05-03T07:14:43.736Z,100422.63
2023-05-03T07:17:10.662Z,100421.00
2023-05-03T07:19:38.717Z,100415.11
2023-05-03T07:22:05.691Z,100416.41
2023-05-03T07:24:32.845Z,100413.88
2023-05-03T07:26:59.631Z,100416.00
2023-05-03T07:29:27.758Z,100415.20
2023-05-03T07:31:54.859Z,100404.21
2023-05-03T07:34:21.988Z,100404.10
2023-05-03T07:36:49.033Z,100406.17
2023-05-03T07:39:15.991Z,100404.35
2023-05-03T07:41:42.983Z,100406.83
2023-05-03T07:44:10.093Z,100406.95
2023-05-03T07:46:37.103Z,100411.71
2023-05-03T07:49:05.055Z,100415.78
2023-05-03T07:51:38.518Z,100411.80
2023-05-03T07:54:05.612Z,100411.15
2023-05-03T07:56:32.667Z,100408.59
2023-05-03T07:59:08.542Z,100406.27
2023-05-03T08:01:38.202Z,100401.36
2023-05-03T08:04:06.647Z,100402.14
2023-05-03T08:06:35.854Z,100410.80
2023-05-03T08:09:04.979Z,100412.16
2023-05-03T08:11:32.487Z,100416.40
2023-05-03T08:13:59.441Z,100416.73
2023-05-03T08:16:28.462Z,100418.27
2023-05-03T08:18:55.445Z,100421.69
2023-05-03T08:21:24.891Z,100419.28
2023-05-03T08:23:52.107Z,100417.81
2023-05-03T08:26:18.980Z,100414.63
2023-05-03T08:28:45.820Z,100412.19
2023-05-03T08:31:12.873Z,100411.67
2023-05-03T08:33:40.211Z,100415.86
2023-05-03T08:36:07.777Z,100413.84
2023-05-03T08:38:35.030Z,100418.83
2023-05-03T08:41:05.170Z,100424.48
2023-05-03T08:43:32.320Z,100421.79
2023-05-03T08:45:59.258Z,100429.35
2023-05-03T08:48:26.293Z,100427.95
2023-05-03T08:50:54.158Z,100430.45
2023-05-03T08:53:21.114Z,100433.77
2023-05-03T08:55:48.307Z,100434.99
2023-05-03T08:58:15.214Z,100434.73
2023-05-03T09:00:45.184Z,100434.85
2023-05-03T09:03:13.332Z,100439.85
2023-05-03T09:05:41.520Z,100439.05
2023-05-03T09:08:13.179Z,100439.61
2023-05-03T09:10:46.017Z,100436.36
2023-05-03T09:13:13.002Z,100441.63
2023-05-03T09:15:40.049Z,100436.85
2023-05-03T09:18:18.237Z,100439.52
2023-05-03T09:20:52.023Z,100438.46
2023-05-03T09:23:28.778Z,100439.84
2023-05-03T09:25:56.056Z,100444.71
2023-05-03T09:28:23.193Z,100444.69
2023-05-03T09:30:50.523Z,100435.73
2023-05-03T09:33:29.130Z,100436.30
2023-05-03T09:35:57.410Z,100444.70
2023-05-03T09:38:28.322Z,100448.94
2023-05-03T09:40:55.167Z,100448.09
2023-05-03T09:43:22.043Z,100449.48
2023-05-03T09:45:49.041Z,100452.80
2023-05-03T09:48:15.993Z,100453.86
2023-05-03T09:50:43.026Z,100445.64
2023-05-03T09:53:09.892Z,100449.25
2023-05-03T09:55:39.154Z,100443.33
2023-05-03T09:58:06.748Z,100442.80
2023-05-03T10:00:40.762Z,100431.76
2023-05-03T10:03:09.331Z,100435.57
2023-05-03T10:05:48.892Z,100431.42
2023-05-03T10:08:28.210Z,100423.39
2023-05-03T10:10:55.325Z,100432.57
2023-05-03T10:13:22.817Z,100432.88
2023-05-03T10:15:53.073Z,100431.77
2023-05-03T10:18:19.902Z,100435.20
2023-05-03T10:20:52.768Z,100433.77
2023-05-03T10:23:19.548Z,100431.39
2023-05-03T10:26:13.585Z,100426.35
2023-05-03T10:28:40.585Z,100430.33
2023-05-03T10:31:29.160Z,100428.94
2023-05-03T10:34:01.077Z,100427.74
2023-05-03T10:36:38.337Z,100430.98
2023-05-03T10:39:15.343Z,100433.64
2023-05-03T10:41:44.128Z,100431.16
2023-05-03T10:44:34.854Z,100432.27
2023-05-03T10:47:17.407Z,100432.94
2023-05-03T10:49:44.699Z,100431.05
2023-05-03T10:52:39.651Z,100429.43
2023-05-03T10:55:14.685Z,100424.10
2023-05-03T10:57:42.848Z,100421.48
2023-05-03T11:00:16.451Z,100420.98
2023-05-03T11:03:04.324Z,100421.70
2023-05-03T11:05:31.330Z,100415.86
2023-05-03T11:08:19.348Z,100412.93
2023-05-03T11:10:46.877Z,100417.95
2023-05-03T11:13:14.155Z,100414.27
2023-05-03T11:15:41.085Z,100409.66
2023-05-03T11:18:08.368Z,100409.59
2023-05-03T11:20:36.456Z,100408.59
2023-05-03T11:23:04.241Z,100402.17
2023-05-03T11:25:31.088Z,100403.09
2023-05-03T11:27:57.864Z,100405.95
2023-05-03T11:30:24.841Z,100407.14
2023-05-03T11:32:51.730Z,100409.88
2023-05-03T11:35:19.425Z,100407.27
2023-05-03T11:37:46.220Z,100409.31
2023-05-03T11:40:19.691Z,100406.46
2023-05-03T11:42:59.875Z,100408.16
2023-05-03T11:45:32.173Z,100408.16
2023-05-03T11:47:59.536Z,100403.87
2023-05-03T11:50:48.403Z,100401.40
2023-05-03T11:53:15.618Z,100402.77
2023-05-03T11:55:43.960Z,100398.99
2023-05-03T11:58:29.013Z,100399.34
2023-05-03T12:00:57.227Z,100394.39
2023-05-03T12:03:28.890Z,100395.70
2023-05-03T12:05:57.654Z,100396.56
2023-05-03T12:08:30.902Z,100395.11
2023-05-03T12:10:59.854Z,100393.00
2023-05-03T12:13:30.646Z,100392.06
2023-05-03T12:16:11.551Z,100387.46
2023-05-03T12:18:52.430Z,100380.80
2023-05-03T12:23:55.862Z,100378.45
2023-05-03T12:26:26.732Z,100370.21
2023-05-03T12:28:56.166Z,100363.66
2023-05-03T12:31:23.918Z,100364.62
2023-05-03T12:36:25.910Z,100368.11
2023-05-03T12:38:56.203Z,100362.20
2023-05-03T12:43:58.609Z,100357.88
2023-05-03T12:46:34.594Z,100361.52
2023-05-03T12:49:06.407Z,100357.33
2023-05-03T12:51:34.381Z,100351.78
2023-05-03T12:54:02.190Z,100348.56
2023-05-03T12:56:32.830Z,100345.57
2023-05-03T13:04:34.458Z,100344.05
2023-05-03T13:06:47.764Z,100346.87
2023-05-03T13:11:48.312Z,100345.02
2023-05-03T13:14:16.444Z,100344.11
2023-05-03T13:16:44.311Z,100345.45
2023-05-03T13:19:14.338Z,100345.10
2023-05-03T13:21:54.140Z,100345.01
2023-05-03T13:24:21.075Z,100344.70
2023-05-03T13:26:47.953Z,100340.98
2023-05-03T13:29:14.790Z,100335.26
2023-05-03T13:31:41.874Z,100338.10
2023-05-03T13:34:08.809Z,100338.33
2023-05-03T13:36:35.910Z,100337.35
2023-05-03T13:39:02.948Z,100335.59
2023-05-03T13:41:29.796Z,100335.63
2023-05-03T13:43:56.743Z,100341.89
2023-05-03T13:46:24.299Z,100344.12
2023-05-03T13:48:53.015Z,100345.35
2023-05-03T13:51:19.991Z,100341.65
2023-05-03T13:53:47.180Z,100341.42
2023-05-03T13:56:14.364Z,100337.10
2023-05-03T13:58:41.586Z,100340.73
2023-05-03T14:01:08.725Z,100338.59
2023-05-03T14:03:35.893Z,100341.83
2023-05-03T14:06:03.215Z,100340.54
2023-05-03T14:08:30.311Z,100341.65
2023-05-03T14:10:57.245Z,100342.23
2023-05-03T14:13:24.956Z,100347.56
2023-05-03T14:15:52.064Z,100345.75
2023-05-03T14:18:19.278Z,100339.16
2023-05-03T14:20:47.074Z,100343.91
2023-05-03T14:23:13.881Z,100342.27
2023-05-03T14:25:41.237Z,100341.30
2023-05-03T14:28:08.102Z,100339.45
2023-05-03T14:30:35.326Z,100340.98
2023-05-03T14:33:03.054Z,100340.28
2023-05-03T14:35:30.600Z,100341.68
2023-05-03T14:37:57.501Z,100341.08
2023-05-03T14:40:24.684Z,100341.55
2023-05-03T14:42:51.671Z,100339.60
2023-05-03T14:45:18.715Z,100341.01
2023-05-03T14:47:46.247Z,100340.86
2023-05-03T14:50:13.765Z,100340.23
2023-05-03T14:52:40.732Z,100342.70
2023-05-03T14:55:08.789Z,100341.23
2023-05-03T14:57:36.457Z,100338.90
2023-05-03T15:00:05.115Z,100344.48
2023-05-03T15:02:32.396Z,100339.25
2023-05-03T15:05:00.106Z,100342.86
2023-05-03T15:07:27.220Z,100342.85
2023-05-03T15:09:54.247Z,100347.09
2023-05-03T15:12:21.816Z,100348.02
2023-05-03T15:14:49.703Z,100345.88
2023-05-03T15:17:16.872Z,100344.27
2023-05-03T15:19:43.881Z,100342.89
2023-05-03T15:22:10.995Z,100344.38
2023-05-03T15:24:37.965Z,100339.65
2023-05-03T15:27:05.065Z,100339.10
2023-05-03T15:29:32.180Z,100341.11
2023-05-03T15:31:59.789Z,100337.46
2023-05-03T15:34:27.409Z,100340.72
2023-05-03T15:36:54.548Z,100339.83
2023-05-03T15:39:24.633Z,100344.03
2023-05-03T15:41:54.587Z,100340.50
2023-05-03T15:44:24.345Z,100342.16
2023-05-03T15:46:54.680Z,100342.98
2023-05-03T15:49:25.677Z,100337.85
2023-05-03T15:51:55.011Z,100341.88
2023-05-03T15:54:24.570Z,100337.21
2023-05-03T15:56:55.712Z,100339.68
2023-05-03T15:59:25.076Z,100337.55
2023-05-03T16:01:54.789Z,100339.22
2023-05-03T16:04:25.797Z,100339.80
2023-05-03T16:06:55.440Z,100340.58
2023-05-03T16:09:24.182Z,100343.20
2023-05-03T16:11:54.252Z,100343.30
2023-05-03T16:14:25.764Z,100347.70
2023-05-03T16:16:56.792Z,100347.44
2023-05-03T16:19:27.762Z,100345.98
2023-05-03T16:21:57.888Z,100354.14
2023-05-03T16:24:28.510Z,100353.39
2023-05-03T16:26:58.785Z,100358.77
2023-05-03T16:29:29.309Z,100366.97
2023-05-03T16:31:58.895Z,100366.33
2023-05-03T16:34:28.740Z,100369.30
2023-05-03T16:36:58.020Z,100370.86
2023-05-03T16:47:02.618Z,100385.55
2023-05-03T16:49:33.309Z,100386.04
2023-05-03T16:52:01.253Z,100388.70
2023-05-03T16:54:28.609Z,100392.14
2023-05-03T16:56:56.166Z,100395.94
2023-05-03T16:59:23.824Z,100396.70
2023-05-03T17:01:51.185Z,100401.80
2023-05-03T17:04:18.234Z,100402.26
2023-05-03T17:06:45.287Z,100403.23
2023-05-03T17:09:13.558Z,100414.82
2023-05-03T17:11:40.652Z,100412.09
2023-05-03T17:14:08.912Z,100414.42
2023-05-03T17:17:24.194Z,100413.34
2023-05-03T17:19:51.154Z,100414.09
2023-05-03T17:22:18.055Z,100411.33
2023-05-03T17:24:45.108Z,100411.80
2023-05-03T17:27:12.163Z,100412.02
2023-05-03T17:29:39.717Z,100412.08
2023-05-03T17:32:06.773Z,100416.07
2023-05-03T17:34:33.642Z,100417.33
2023-05-03T17:37:00.667Z,100417.45
2023-05-03T17:39:28.736Z,100417.77
2023-05-03T17:41:55.676Z,100416.38
2023-05-03T17:44:23.357Z,100415.87
2023-05-03T17:46:52.259Z,100416.39
2023-05-03T17:49:19.900Z,100418.17
2023-05-03T17:51:46.858Z,100419.70
2023-05-03T17:54:13.724Z,100419.54
2023-05-03T17:56:40.745Z,100425.92
2023-05-03T17:59:08.108Z,100431.54
2023-05-03T18:01:35.495Z,100445.75
2023-05-03T18:04:02.554Z,100450.92
2023-05-03T18:06:29.767Z,100457.83
2023-05-03T18:08:57.458Z,100458.71
2023-05-03T18:11:24.498Z,100466.60
2023-05-03T18:13:51.522Z,100469.59
2023-05-03T18:16:18.917Z,100475.17
2023-05-03T18:18:45.831Z,100483.98
2023-05-03T18:21:12.868Z,100487.13
2023-05-03T18:23:39.830Z,100486.98
2023-05-03T18:26:08.570Z,100492.04
2023-05-03T18:28:35.686Z,100494.89
2023-05-03T18:31:03.968Z,100498.94
2023-05-03T18:33:32.961Z,100498.45
2023-05-03T18:35:59.781Z,100496.98
2023-05-03T18:38:27.126Z,100499.34
2023-05-03T18:40:55.980Z,100501.70
2023-05-03T18:43:23.194Z,100504.83
2023-05-03T18:45:50.081Z,100513.04
2023-05-03T18:48:17.404Z,100516.36
2023-05-03T18:50:44.436Z,100521.29
2023-05-03T18:53:11.472Z,100517.92
2023-05-03T18:55:38.358Z,100520.37
2023-05-03T18:58:05.580Z,100526.45
2023-05-03T19:00:32.621Z,100528.83
2023-05-03T19:03:00.250Z,100527.69
2023-05-03T19:05:27.197Z,100534.31
2023-05-03T19:07:54.112Z,100537.12
2023-05-03T19:10:21.189Z,100543.89
2023-05-03T19:12:48.253Z,100545.98
2023-05-03T19:15:15.264Z,100549.73
2023-05-03T19:17:42.696Z,100554.36
2023-05-03T19:20:13.023Z,100555.34
2023-05-03T19:22:40.058Z,100559.77
2023-05-03T19:25:07.958Z,100566.63
2023-05-03T19:27:34.966Z,100568.04
2023-05-03T19:30:02.327Z,100572.17
2023-05-03T19:32:33.529Z,100575.52
2023-05-03T19:35:02.479Z,100574.61
2023-05-03T19:37:29.477Z,100576.90
2023-05-03T19:39:58.103Z,100574.45
2023-05-03T19:42:25.053Z,100574.50
2023-05-03T19:44:51.863Z,100576.16
2023-05-03T19:47:19.050Z,100580.36
2023-05-03T19:49:46.049Z,100587.27
2023-05-03T19:52:12.850Z,100588.46
2023-05-03T19:54:39.784Z,100590.44
2023-05-03T19:57:07.677Z,100585.90
2023-05-03T19:59:35.639Z,100591.10
2023-05-03T20:02:03.430Z,100593.45
2023-05-03T20:04:30.656Z,100590.55
2023-05-03T20:06:57.544Z,100598.66
2023-05-03T20:09:24.652Z,100596.17
2023-05-03T20:11:56.307Z,100603.12
2023-05-03T20:14:23.180Z,100610.27
2023-05-03T20:16:50.085Z,100615.65
2023-05-03T20:19:17.494Z,100616.55
2023-05-03T20:21:45.052Z,100617.61
2023-05-03T20:24:12.083Z,100620.02
2023-05-03T20:26:39.215Z,100619.41
2023-05-03T20:29:06.253Z,100614.95
2023-05-03T20:31:33.220Z,100610.42
2023-05-03T20:34:00.664Z,100610.45
2023-05-03T20:36:28.247Z,100605.55
2023-05-03T20:38:56.092Z,100607.96
2023-05-03T20:41:23.361Z,100607.98
2023-05-03T20:43:52.296Z,100612.03
2023-05-03T20:46:19.411Z,100615.92
2023-05-03T20:48:46.435Z,100621.40
2023-05-03T20:51:13.487Z,100617.59
2023-05-03T20:53:40.683Z,100618.45
2023-05-03T20:56:08.273Z,100619.14
2023-05-03T20:58:35.377Z,100615.77
2023-05-03T21:01:07.014Z,100618.36
2023-05-03T21:03:34.600Z,100619.73
2023-05-03T21:06:01.580Z,100622.52
2023-05-03T21:08:28.513Z,100621.76
2023-05-03T21:10:55.650Z,100623.48
2023-05-03T21:13:22.745Z,100628.88
2023-05-03T21:15:51.244Z,100634.73
2023-05-03T21:18:19.172Z,100639.46
2023-05-03T21:20:46.529Z,100633.63
2023-05-03T21:23:13.631Z,100634.40
2023-05-03T21:25:40.671Z,100638.86
2023-05-03T21:28:07.606Z,100638.86
2023-05-03T21:30:34.689Z,100639.31
2023-05-03T21:33:01.736Z,100639.46
2023-05-03T21:35:28.975Z,100640.58
2023-05-03T21:37:55.897Z,100642.74
2023-05-03T21:40:22.903Z,100642.23
2023-05-03T21:42:52.278Z,100650.66
2023-05-03T21:45:19.666Z,100643.37
2023-05-03T21:47:47.093Z,100645.89
2023-05-03T21:50:14.342Z,100644.07
2023-05-03T21:52:41.600Z,100638.48
2023-05-03T21:55:08.858Z,100636.48
2023-05-03T21:57:37.056Z,100634.69
2023-05-03T22:00:06.007Z,100634.52
2023-05-03T22:02:35.443Z,100637.33
2023-05-03T22:05:02.706Z,100632.27
2023-05-03T22:07:29.829Z,100630.88
2023-05-03T22:09:56.806Z,100631.39
2023-05-03T22:12:24.789Z,100630.48
2023-05-03T22:14:53.171Z,100624.67
2023-05-03T22:17:20.485Z,100624.11
2023-05-03T22:19:47.533Z,100622.14
2023-05-03T22:22:14.415Z,100622.21
2023-05-03T22:24:41.718Z,100621.66
2023-05-03T22:27:08.525Z,100626.77
2023-05-03T22:29:35.425Z,100623.42
2023-05-03T22:32:03.268Z,100626.48
2023-05-03T22:34:30.438Z,100628.81
2023-05-03T22:36:57.476Z,100631.27
2023-05-03T22:39:24.364Z,100631.30
2023-05-03T22:41:51.280Z,100627.39
2023-05-03T22:44:18.249Z,100632.16
2023-05-03T22:46:45.057Z,100633.59
2023-05-03T22:49:12.074Z,100630.70
2023-05-03T22:51:38.970Z,100630.77
2023-05-03T22:54:05.980Z,100628.13
2023-05-03T22:56:33.058Z,100631.13
2023-05-03T22:58:59.943Z,100628.65
2023-05-03T23:01:27.527Z,100632.14
2023-05-03T23:03:54.802Z,100635.64
2023-05-03T23:06:21.876Z,100633.58
2023-05-03T23:08:49.225Z,100629.64
2023-05-03T23:11:16.271Z,100630.59
2023-05-03T23:13:43.420Z,100628.52
2023-05-03T23:16:10.709Z,100626.48
2023-05-03T23:18:38.029Z,100624.75
2023-05-03T23:21:05.081Z,100619.74
2023-05-03T23:23:32.042Z,100621.69
2023-05-03T23:25:59.075Z,100618.52
2023-05-03T23:28:26.748Z,100620.06
2023-05-03T23:30:54.306Z,100614.57
2023-05-03T23:33:21.752Z,100616.86
2023-05-03T23:35:49.131Z,100614.88
2023-05-03T23:38:16.531Z,100613.02
2023-05-03T23:40:43.730Z,100612.85
2023-05-03T23:43:10.523Z,100616.53
2023-05-03T23:45:37.417Z,100613.33
2023-05-03T23:48:05.156Z,100612.07
2023-05-03T23:50:32.337Z,100609.16
2023-05-03T23:52:59.705Z,100609.76
2023-05-03T23:55:26.675Z,100613.20
2023-05-03T23:57:53.682Z,100610.20
